sensor_id;sensor_type;location;lat;lon;timestamp;P1;durP1;ratioP1;P2;durP2;ratioP2
8466;SDS011;4270;48.148;11.648;2023-05-07T00:00:16;13.83;;;9.50;;
8466;SDS011;4270;48.148;11.648;2023-05-07T00:02:43;10.83;;;9.13;;
8466;SDS011;4270;48.148;11.648;2023-05-07T00:05:09;10.83;;;8.80;;
8466;SDS011;4270;48.148;11.648;2023-05-07T00:07:34;10.93;;;8.50;;
8466;SDS011;4270;48.148;11.648;2023-05-07T00:09:59;11.00;;;9.43;;
8466;SDS011;4270;48.148;11.648;2023-05-07T00:12:25;10.63;;;8.60;;
8466;SDS011;4270;48.148;11.648;2023-05-07T00:14:50;12.50;;;8.97;;
8466;SDS011;4270;48.148;11.648;2023-05-07T00:17:15;10.43;;;8.47;;
8466;SDS011;4270;48.148;11.648;2023-05-07T00:19:40;10.00;;;9.00;;
8466;SDS011;4270;48.148;11.648;2023-05-07T00:22:06;9.83;;;8.57;;
8466;SDS011;4270;48.148;11.648;2023-05-07T00:24:32;11.40;;;9.53;;
8466;SDS011;4270;48.148;11.648;2023-05-07T00:26:57;10.10;;;9.10;;
8466;SDS011;4270;48.148;11.648;2023-05-07T00:29:23;13.63;;;9.10;;
8466;SDS011;4270;48.148;11.648;2023-05-07T00:31:48;17.43;;;9.07;;
8466;SDS011;4270;48.148;11.648;2023-05-07T00:34:14;11.17;;;9.97;;
8466;SDS011;4270;48.148;11.648;2023-05-07T00:36:39;13.73;;;8.90;;
8466;SDS011;4270;48.148;11.648;2023-05-07T00:39:04;16.67;;;9.93;;
8466;SDS011;4270;48.148;11.648;2023-05-07T00:41:29;11.40;;;9.07;;
8466;SDS011;4270;48.148;11.648;2023-05-07T00:43:55;13.90;;;9.80;;
8466;SDS011;4270;48.148;11.648;2023-05-07T00:46:21;11.37;;;9.47;;
8466;SDS011;4270;48.148;11.648;2023-05-07T00:48:47;12.27;;;9.10;;
8466;SDS011;4270;48.148;11.648;2023-05-07T00:51:12;16.37;;;9.03;;
8466;SDS011;4270;48.148;11.648;2023-05-07T00:53:38;10.07;;;8.83;;
8466;SDS011;4270;48.148;11.648;2023-05-07T00:56:03;12.10;;;9.60;;
8466;SDS011;4270;48.148;11.648;2023-05-07T00:58:31;10.03;;;8.87;;
8466;SDS011;4270;48.148;11.648;2023-05-07T01:00:56;10.27;;;9.27;;
8466;SDS011;4270;48.148;11.648;2023-05-07T01:03:21;11.27;;;9.03;;
8466;SDS011;4270;48.148;11.648;2023-05-07T01:05:46;10.70;;;8.90;;
8466;SDS011;4270;48.148;11.648;2023-05-07T01:08:13;10.10;;;8.87;;
8466;SDS011;4270;48.148;11.648;2023-05-07T01:10:38;10.97;;;8.23;;
8466;SDS011;4270;48.148;11.648;2023-05-07T01:13:07;11.47;;;8.90;;
8466;SDS011;4270;48.148;11.648;2023-05-07T01:15:33;12.37;;;8.33;;
8466;SDS011;4270;48.148;11.648;2023-05-07T01:17:58;13.57;;;10.23;;
8466;SDS011;4270;48.148;11.648;2023-05-07T01:20:24;12.60;;;8.80;;
8466;SDS011;4270;48.148;11.648;2023-05-07T01:22:49;11.67;;;9.27;;
8466;SDS011;4270;48.148;11.648;2023-05-07T01:25:15;11.73;;;9.80;;
8466;SDS011;4270;48.148;11.648;2023-05-07T01:27:41;12.13;;;9.43;;
8466;SDS011;4270;48.148;11.648;2023-05-07T01:30:06;14.13;;;9.60;;
8466;SDS011;4270;48.148;11.648;2023-05-07T01:32:32;11.77;;;8.77;;
8466;SDS011;4270;48.148;11.648;2023-05-07T01:34:58;17.40;;;8.70;;
8466;SDS011;4270;48.148;11.648;2023-05-07T01:37:25;11.30;;;9.50;;
8466;SDS011;4270;48.148;11.648;2023-05-07T01:39:50;10.10;;;8.60;;
8466;SDS011;4270;48.148;11.648;2023-05-07T01:42:16;10.20;;;9.00;;
8466;SDS011;4270;48.148;11.648;2023-05-07T01:44:41;11.70;;;9.80;;
8466;SDS011;4270;48.148;11.648;2023-05-07T01:47:06;13.00;;;9.03;;
8466;SDS011;4270;48.148;11.648;2023-05-07T01:49:32;9.27;;;8.23;;
8466;SDS011;4270;48.148;11.648;2023-05-07T01:51:57;14.93;;;8.83;;
8466;SDS011;4270;48.148;11.648;2023-05-07T01:54:26;11.67;;;9.00;;
8466;SDS011;4270;48.148;11.648;2023-05-07T01:56:52;12.03;;;8.70;;
8466;SDS011;4270;48.148;11.648;2023-05-07T01:59:18;12.77;;;8.80;;
8466;SDS011;4270;48.148;11.648;2023-05-07T02:01:43;9.83;;;8.80;;
8466;SDS011;4270;48.148;11.648;2023-05-07T02:04:08;11.70;;;8.60;;
8466;SDS011;4270;48.148;11.648;2023-05-07T02:06:33;12.23;;;9.33;;
8466;SDS011;4270;48.148;11.648;2023-05-07T02:08:58;17.33;;;8.47;;
8466;SDS011;4270;48.148;11.648;2023-05-07T02:11:23;11.27;;;8.47;;
8466;SDS011;4270;48.148;11.648;2023-05-07T02:13:50;10.60;;;8.90;;
8466;SDS011;4270;48.148;11.648;2023-05-07T02:16:15;10.40;;;9.40;;
8466;SDS011;4270;48.148;11.648;2023-05-07T02:18:40;11.60;;;9.30;;
8466;SDS011;4270;48.148;11.648;2023-05-07T02:21:05;9.83;;;8.60;;
8466;SDS011;4270;48.148;11.648;2023-05-07T02:23:30;10.80;;;8.77;;
8466;SDS011;4270;48.148;11.648;2023-05-07T02:25:56;13.63;;;9.00;;
8466;SDS011;4270;48.148;11.648;2023-05-07T02:28:21;10.83;;;8.93;;
8466;SDS011;4270;48.148;11.648;2023-05-07T02:30:46;9.83;;;8.70;;
8466;SDS011;4270;48.148;11.648;2023-05-07T02:33:11;9.93;;;9.03;;
8466;SDS011;4270;48.148;11.648;2023-05-07T02:35:38;9.90;;;8.87;;
8466;SDS011;4270;48.148;11.648;2023-05-07T02:38:03;9.50;;;8.30;;
8466;SDS011;4270;48.148;11.648;2023-05-07T02:40:29;11.77;;;9.90;;
8466;SDS011;4270;48.148;11.648;2023-05-07T02:42:54;10.97;;;9.37;;
8466;SDS011;4270;48.148;11.648;2023-05-07T02:45:19;12.43;;;8.20;;
8466;SDS011;4270;48.148;11.648;2023-05-07T02:47:45;9.87;;;8.57;;
8466;SDS011;4270;48.148;11.648;2023-05-07T02:50:10;9.30;;;8.40;;
8466;SDS011;4270;48.148;11.648;2023-05-07T02:52:35;7.90;;;7.00;;
8466;SDS011;4270;48.148;11.648;2023-05-07T02:55:00;10.37;;;8.67;;
8466;SDS011;4270;48.148;11.648;2023-05-07T02:57:26;12.07;;;7.77;;
8466;SDS011;4270;48.148;11.648;2023-05-07T02:59:51;9.10;;;8.20;;
8466;SDS011;4270;48.148;11.648;2023-05-07T03:02:16;10.93;;;8.10;;
8466;SDS011;4270;48.148;11.648;2023-05-07T03:04:41;8.50;;;7.60;;
8466;SDS011;4270;48.148;11.648;2023-05-07T03:07:06;12.77;;;7.83;;
8466;SDS011;4270;48.148;11.648;2023-05-07T03:09:31;8.20;;;7.40;;
8466;SDS011;4270;48.148;11.648;2023-05-07T03:11:57;7.90;;;7.20;;
8466;SDS011;4270;48.148;11.648;2023-05-07T03:14:22;8.63;;;6.77;;
8466;SDS011;4270;48.148;11.648;2023-05-07T03:16:48;10.50;;;7.10;;
8466;SDS011;4270;48.148;11.648;2023-05-07T03:19:13;8.00;;;7.20;;
8466;SDS011;4270;48.148;11.648;2023-05-07T03:21:38;7.87;;;7.07;;
8466;SDS011;4270;48.148;11.648;2023-05-07T03:24:04;8.17;;;7.23;;
8466;SDS011;4270;48.148;11.648;2023-05-07T03:26:29;9.30;;;7.07;;
8466;SDS011;4270;48.148;11.648;2023-05-07T03:28:54;9.53;;;7.27;;
8466;SDS011;4270;48.148;11.648;2023-05-07T03:31:20;8.10;;;7.30;;
8466;SDS011;4270;48.148;11.648;2023-05-07T03:33:52;8.93;;;7.50;;
8466;SDS011;4270;48.148;11.648;2023-05-07T03:36:17;8.37;;;6.80;;
8466;SDS011;4270;48.148;11.648;2023-05-07T03:38:42;7.83;;;7.03;;
8466;SDS011;4270;48.148;11.648;2023-05-07T03:41:08;6.90;;;6.20;;
8466;SDS011;4270;48.148;11.648;2023-05-07T03:43:33;8.50;;;7.00;;
8466;SDS011;4270;48.148;11.648;2023-05-07T03:45:58;10.60;;;7.73;;
8466;SDS011;4270;48.148;11.648;2023-05-07T03:48:23;10.83;;;7.07;;
8466;SDS011;4270;48.148;11.648;2023-05-07T03:50:48;7.27;;;6.40;;
8466;SDS011;4270;48.148;11.648;2023-05-07T03:53:13;7.30;;;6.60;;
8466;SDS011;4270;48.148;11.648;2023-05-07T03:55:39;6.67;;;5.93;;
8466;SDS011;4270;48.148;11.648;2023-05-07T03:58:04;9.77;;;7.27;;
8466;SDS011;4270;48.148;11.648;2023-05-07T04:00:29;7.60;;;6.90;;
8466;SDS011;4270;48.148;11.648;2023-05-07T04:02:58;8.17;;;6.90;;
8466;SDS011;4270;48.148;11.648;2023-05-07T04:05:23;7.57;;;6.87;;
8466;SDS011;4270;48.148;11.648;2023-05-07T04:07:48;7.27;;;6.47;;
8466;SDS011;4270;48.148;11.648;2023-05-07T04:10:14;10.23;;;7.10;;
8466;SDS011;4270;48.148;11.648;2023-05-07T04:12:39;7.67;;;6.53;;
8466;SDS011;4270;48.148;11.648;2023-05-07T04:15:04;9.53;;;6.80;;
8466;SDS011;4270;48.148;11.648;2023-05-07T04:17:29;9.27;;;6.73;;
8466;SDS011;4270;48.148;11.648;2023-05-07T04:19:54;8.70;;;7.23;;
8466;SDS011;4270;48.148;11.648;2023-05-07T04:22:20;10.10;;;6.40;;
8466;SDS011;4270;48.148;11.648;2023-05-07T04:24:45;8.20;;;7.30;;
8466;SDS011;4270;48.148;11.648;2023-05-07T04:27:10;6.60;;;6.00;;
8466;SDS011;4270;48.148;11.648;2023-05-07T04:29:35;7.53;;;6.60;;
8466;SDS011;4270;48.148;11.648;2023-05-07T04:32:00;8.70;;;7.27;;
8466;SDS011;4270;48.148;11.648;2023-05-07T04:34:26;6.30;;;5.70;;
8466;SDS011;4270;48.148;11.648;2023-05-07T04:36:51;7.57;;;6.10;;
8466;SDS011;4270;48.148;11.648;2023-05-07T04:39:16;8.17;;;6.50;;
8466;SDS011;4270;48.148;11.648;2023-05-07T04:41:41;6.87;;;6.17;;
8466;SDS011;4270;48.148;11.648;2023-05-07T04:44:07;8.43;;;6.77;;
8466;SDS011;4270;48.148;11.648;2023-05-07T04:46:34;6.03;;;5.50;;
8466;SDS011;4270;48.148;11.648;2023-05-07T04:48:59;7.77;;;6.10;;
8466;SDS011;4270;48.148;11.648;2023-05-07T04:51:24;6.57;;;5.97;;
8466;SDS011;4270;48.148;11.648;2023-05-07T04:53:50;6.70;;;5.87;;
8466;SDS011;4270;48.148;11.648;2023-05-07T04:56:15;7.07;;;6.40;;
8466;SDS011;4270;48.148;11.648;2023-05-07T04:58:40;7.63;;;6.63;;
8466;SDS011;4270;48.148;11.648;2023-05-07T05:01:05;7.60;;;6.90;;
8466;SDS011;4270;48.148;11.648;2023-05-07T05:03:31;11.73;;;7.40;;
8466;SDS011;4270;48.148;11.648;2023-05-07T05:05:56;8.30;;;6.90;;
8466;SDS011;4270;48.148;11.648;2023-05-07T05:08:24;7.87;;;6.90;;
8466;SDS011;4270;48.148;11.648;2023-05-07T05:10:49;9.40;;;8.23;;
8466;SDS011;4270;48.148;11.648;2023-05-07T05:13:14;7.53;;;6.77;;
8466;SDS011;4270;48.148;11.648;2023-05-07T05:15:39;8.60;;;7.40;;
8466;SDS011;4270;48.148;11.648;2023-05-07T05:18:05;6.77;;;6.10;;
8466;SDS011;4270;48.148;11.648;2023-05-07T05:20:30;8.23;;;6.83;;
8466;SDS011;4270;48.148;11.648;2023-05-07T05:22:55;7.10;;;6.40;;
8466;SDS011;4270;48.148;11.648;2023-05-07T05:25:20;6.60;;;5.87;;
8466;SDS011;4270;48.148;11.648;2023-05-07T05:27:45;7.97;;;7.00;;
8466;SDS011;4270;48.148;11.648;2023-05-07T05:30:11;8.33;;;7.40;;
8466;SDS011;4270;48.148;11.648;2023-05-07T05:32:36;7.50;;;6.47;;
8466;SDS011;4270;48.148;11.648;2023-05-07T05:35:01;6.30;;;5.73;;
8466;SDS011;4270;48.148;11.648;2023-05-07T05:37:26;7.10;;;6.27;;
8466;SDS011;4270;48.148;11.648;2023-05-07T05:39:52;6.83;;;6.23;;
8466;SDS011;4270;48.148;11.648;2023-05-07T05:42:17;6.93;;;6.33;;
8466;SDS011;4270;48.148;11.648;2023-05-07T05:44:42;12.63;;;7.00;;
8466;SDS011;4270;48.148;11.648;2023-05-07T05:47:07;7.20;;;6.50;;
8466;SDS011;4270;48.148;11.648;2023-05-07T05:49:33;7.77;;;6.43;;
8466;SDS011;4270;48.148;11.648;2023-05-07T05:51:58;7.20;;;6.30;;
8466;SDS011;4270;48.148;11.648;2023-05-07T05:54:23;8.20;;;5.83;;
8466;SDS011;4270;48.148;11.648;2023-05-07T05:56:49;6.43;;;5.67;;
8466;SDS011;4270;48.148;11.648;2023-05-07T05:59:14;8.23;;;6.13;;
8466;SDS011;4270;48.148;11.648;2023-05-07T06:01:39;8.63;;;6.50;;
8466;SDS011;4270;48.148;11.648;2023-05-07T06:04:04;6.87;;;6.27;;
8466;SDS011;4270;48.148;11.648;2023-05-07T06:06:29;6.10;;;5.50;;
8466;SDS011;4270;48.148;11.648;2023-05-07T06:08:56;7.77;;;5.87;;
8466;SDS011;4270;48.148;11.648;2023-05-07T06:11:21;8.33;;;6.10;;
8466;SDS011;4270;48.148;11.648;2023-05-07T06:13:46;6.03;;;5.40;;
8466;SDS011;4270;48.148;11.648;2023-05-07T06:16:11;6.27;;;5.67;;
8466;SDS011;4270;48.148;11.648;2023-05-07T06:18:36;6.30;;;5.80;;
8466;SDS011;4270;48.148;11.648;2023-05-07T06:21:02;5.67;;;4.80;;
8466;SDS011;4270;48.148;11.648;2023-05-07T06:23:27;7.23;;;5.47;;
8466;SDS011;4270;48.148;11.648;2023-05-07T06:25:52;5.60;;;5.10;;
8466;SDS011;4270;48.148;11.648;2023-05-07T06:28:17;5.40;;;4.90;;
8466;SDS011;4270;48.148;11.648;2023-05-07T06:30:42;7.30;;;5.60;;
8466;SDS011;4270;48.148;11.648;2023-05-07T06:33:08;6.27;;;4.70;;
8466;SDS011;4270;48.148;11.648;2023-05-07T06:35:33;4.90;;;4.40;;
8466;SDS011;4270;48.148;11.648;2023-05-07T06:37:59;4.07;;;3.70;;
8466;SDS011;4270;48.148;11.648;2023-05-07T06:40:24;4.97;;;3.97;;
8466;SDS011;4270;48.148;11.648;2023-05-07T06:42:49;3.50;;;3.20;;
8466;SDS011;4270;48.148;11.648;2023-05-07T06:45:15;3.93;;;3.63;;
8466;SDS011;4270;48.148;11.648;2023-05-07T06:47:40;4.50;;;3.37;;
8466;SDS011;4270;48.148;11.648;2023-05-07T06:50:05;4.13;;;3.60;;
8466;SDS011;4270;48.148;11.648;2023-05-07T06:52:31;3.83;;;3.53;;
8466;SDS011;4270;48.148;11.648;2023-05-07T06:54:56;4.03;;;3.60;;
8466;SDS011;4270;48.148;11.648;2023-05-07T06:57:21;3.40;;;3.10;;
8466;SDS011;4270;48.148;11.648;2023-05-07T06:59:46;3.70;;;3.37;;
8466;SDS011;4270;48.148;11.648;2023-05-07T07:02:11;3.80;;;3.50;;
8466;SDS011;4270;48.148;11.648;2023-05-07T07:04:36;3.75;;;3.30;;
8466;SDS011;4270;48.148;11.648;2023-05-07T07:07:02;4.13;;;3.37;;
8466;SDS011;4270;48.148;11.648;2023-05-07T07:09:27;3.80;;;3.50;;
8466;SDS011;4270;48.148;11.648;2023-05-07T07:11:52;3.37;;;3.17;;
8466;SDS011;4270;48.148;11.648;2023-05-07T07:14:17;4.13;;;3.27;;
8466;SDS011;4270;48.148;11.648;2023-05-07T07:16:42;5.13;;;2.60;;
8466;SDS011;4270;48.148;11.648;2023-05-07T07:19:07;3.53;;;3.23;;
8466;SDS011;4270;48.148;11.648;2023-05-07T07:21:33;3.40;;;2.83;;
8466;SDS011;4270;48.148;11.648;2023-05-07T07:23:58;3.77;;;3.47;;
8466;SDS011;4270;48.148;11.648;2023-05-07T07:26:23;3.07;;;2.80;;
8466;SDS011;4270;48.148;11.648;2023-05-07T07:28:48;4.03;;;3.73;;
8466;SDS011;4270;48.148;11.648;2023-05-07T07:31:13;5.83;;;3.83;;
8466;SDS011;4270;48.148;11.648;2023-05-07T07:33:39;3.92;;;3.55;;
8466;SDS011;4270;48.148;11.648;2023-05-07T07:36:05;4.37;;;3.43;;
8466;SDS011;4270;48.148;11.648;2023-05-07T07:38:30;4.07;;;3.78;;
8466;SDS011;4270;48.148;11.648;2023-05-07T07:40:56;3.75;;;3.45;;
8466;SDS011;4270;48.148;11.648;2023-05-07T07:43:21;4.07;;;3.77;;
8466;SDS011;4270;48.148;11.648;2023-05-07T07:45:46;4.73;;;3.60;;
8466;SDS011;4270;48.148;11.648;2023-05-07T07:48:11;3.07;;;2.87;;
8466;SDS011;4270;48.148;11.648;2023-05-07T07:50:36;3.15;;;2.95;;
8466;SDS011;4270;48.148;11.648;2023-05-07T07:53:03;4.70;;;4.30;;
8466;SDS011;4270;48.148;11.648;2023-05-07T07:55:28;5.85;;;3.03;;
8466;SDS011;4270;48.148;11.648;2023-05-07T07:57:53;3.63;;;3.33;;
8466;SDS011;4270;48.148;11.648;2023-05-07T08:00:18;3.70;;;3.40;;
8466;SDS011;4270;48.148;11.648;2023-05-07T08:02:44;4.05;;;3.08;;
8466;SDS011;4270;48.148;11.648;2023-05-07T08:05:09;3.87;;;2.90;;
8466;SDS011;4270;48.148;11.648;2023-05-07T08:07:34;2.83;;;2.63;;
8466;SDS011;4270;48.148;11.648;2023-05-07T08:09:59;2.92;;;2.70;;
8466;SDS011;4270;48.148;11.648;2023-05-07T08:12:24;3.00;;;2.80;;
8466;SDS011;4270;48.148;11.648;2023-05-07T08:14:50;3.20;;;2.90;;
8466;SDS011;4270;48.148;11.648;2023-05-07T08:17:15;2.97;;;2.80;;
8466;SDS011;4270;48.148;11.648;2023-05-07T08:19:41;3.65;;;3.45;;
8466;SDS011;4270;48.148;11.648;2023-05-07T08:22:06;3.03;;;2.83;;
8466;SDS011;4270;48.148;11.648;2023-05-07T08:24:32;3.47;;;3.27;;
8466;SDS011;4270;48.148;11.648;2023-05-07T08:26:57;3.20;;;3.00;;
8466;SDS011;4270;48.148;11.648;2023-05-07T08:29:22;3.57;;;3.27;;
8466;SDS011;4270;48.148;11.648;2023-05-07T08:31:47;3.10;;;2.90;;
8466;SDS011;4270;48.148;11.648;2023-05-07T08:34:12;3.13;;;2.93;;
8466;SDS011;4270;48.148;11.648;2023-05-07T08:36:37;3.22;;;2.95;;
8466;SDS011;4270;48.148;11.648;2023-05-07T08:39:03;3.10;;;2.80;;
8466;SDS011;4270;48.148;11.648;2023-05-07T08:41:28;3.70;;;3.40;;
8466;SDS011;4270;48.148;11.648;2023-05-07T08:43:54;3.40;;;3.10;;
8466;SDS011;4270;48.148;11.648;2023-05-07T08:46:21;3.22;;;2.97;;
8466;SDS011;4270;48.148;11.648;2023-05-07T08:48:49;3.45;;;3.15;;
8466;SDS011;4270;48.148;11.648;2023-05-07T08:51:18;2.83;;;2.63;;
8466;SDS011;4270;48.148;11.648;2023-05-07T08:53:44;3.10;;;2.90;;
8466;SDS011;4270;48.148;11.648;2023-05-07T08:56:10;3.35;;;3.15;;
8466;SDS011;4270;48.148;11.648;2023-05-07T08:58:36;4.00;;;3.70;;
8466;SDS011;4270;48.148;11.648;2023-05-07T09:01:02;4.05;;;3.67;;
8466;SDS011;4270;48.148;11.648;2023-05-07T09:03:28;3.78;;;3.47;;
8466;SDS011;4270;48.148;11.648;2023-05-07T09:05:53;2.87;;;2.67;;
8466;SDS011;4270;48.148;11.648;2023-05-07T09:08:18;3.90;;;3.60;;
8466;SDS011;4270;48.148;11.648;2023-05-07T09:10:44;4.20;;;3.15;;
8466;SDS011;4270;48.148;11.648;2023-05-07T09:13:09;3.40;;;3.20;;
8466;SDS011;4270;48.148;11.648;2023-05-07T09:15:38;3.22;;;2.92;;
8466;SDS011;4270;48.148;11.648;2023-05-07T09:18:03;4.00;;;2.90;;
8466;SDS011;4270;48.148;11.648;2023-05-07T09:20:30;3.45;;;3.15;;
8466;SDS011;4270;48.148;11.648;2023-05-07T09:22:55;3.67;;;3.47;;
8466;SDS011;4270;48.148;11.648;2023-05-07T09:25:27;3.30;;;3.10;;
8466;SDS011;4270;48.148;11.648;2023-05-07T09:27:52;3.95;;;3.55;;
8466;SDS011;4270;48.148;11.648;2023-05-07T09:30:17;3.43;;;3.03;;
8466;SDS011;4270;48.148;11.648;2023-05-07T09:32:42;5.10;;;2.90;;
8466;SDS011;4270;48.148;11.648;2023-05-07T09:35:14;3.22;;;2.92;;
8466;SDS011;4270;48.148;11.648;2023-05-07T09:37:40;3.28;;;2.72;;
8466;SDS011;4270;48.148;11.648;2023-05-07T09:40:06;2.60;;;2.40;;
8466;SDS011;4270;48.148;11.648;2023-05-07T09:42:32;3.05;;;2.85;;
8466;SDS011;4270;48.148;11.648;2023-05-07T09:44:58;3.97;;;2.72;;
8466;SDS011;4270;48.148;11.648;2023-05-07T09:47:24;5.43;;;2.95;;
8466;SDS011;4270;48.148;11.648;2023-05-07T09:49:50;2.72;;;2.55;;
8466;SDS011;4270;48.148;11.648;2023-05-07T09:52:19;2.70;;;2.50;;
8466;SDS011;4270;48.148;11.648;2023-05-07T09:54:45;2.50;;;2.40;;
8466;SDS011;4270;48.148;11.648;2023-05-07T09:57:12;3.33;;;2.55;;
8466;SDS011;4270;48.148;11.648;2023-05-07T09:59:38;4.88;;;2.25;;
8466;SDS011;4270;48.148;11.648;2023-05-07T10:02:07;2.75;;;2.55;;
8466;SDS011;4270;48.148;11.648;2023-05-07T10:04:32;3.17;;;2.97;;
8466;SDS011;4270;48.148;11.648;2023-05-07T10:06:58;3.10;;;2.70;;
8466;SDS011;4270;48.148;11.648;2023-05-07T10:09:25;4.05;;;3.75;;
8466;SDS011;4270;48.148;11.648;2023-05-07T10:11:50;2.33;;;1.88;;
8466;SDS011;4270;48.148;11.648;2023-05-07T10:14:16;2.95;;;2.47;;
8466;SDS011;4270;48.148;11.648;2023-05-07T10:16:42;2.28;;;2.08;;
8466;SDS011;4270;48.148;11.648;2023-05-07T10:19:08;1.90;;;1.70;;
8466;SDS011;4270;48.148;11.648;2023-05-07T10:21:36;2.15;;;1.73;;
8466;SDS011;4270;48.148;11.648;2023-05-07T10:24:06;2.88;;;2.20;;
8466;SDS011;4270;48.148;11.648;2023-05-07T10:26:35;1.75;;;1.65;;
8466;SDS011;4270;48.148;11.648;2023-05-07T10:29:02;3.22;;;1.95;;
8466;SDS011;4270;48.148;11.648;2023-05-07T10:33:54;2.00;;;1.87;;
8466;SDS011;4270;48.148;11.648;2023-05-07T10:36:20;3.27;;;2.27;;
8466;SDS011;4270;48.148;11.648;2023-05-07T10:38:46;2.60;;;2.40;;
8466;SDS011;4270;48.148;11.648;2023-05-07T10:41:11;2.50;;;2.03;;
8466;SDS011;4270;48.148;11.648;2023-05-07T10:43:40;3.10;;;2.90;;
8466;SDS011;4270;48.148;11.648;2023-05-07T10:46:10;3.20;;;2.97;;
8466;SDS011;4270;48.148;11.648;2023-05-07T10:51:21;3.27;;;2.60;;
8466;SDS011;4270;48.148;11.648;2023-05-07T10:53:46;2.67;;;2.47;;
8466;SDS011;4270;48.148;11.648;2023-05-07T10:58:43;2.40;;;2.20;;
8466;SDS011;4270;48.148;11.648;2023-05-07T11:01:08;3.10;;;2.70;;
8466;SDS011;4270;48.148;11.648;2023-05-07T11:03:35;4.00;;;3.30;;
8466;SDS011;4270;48.148;11.648;2023-05-07T11:06:14;3.73;;;2.67;;
8466;SDS011;4270;48.148;11.648;2023-05-07T11:11:16;4.67;;;3.73;;
8466;SDS011;4270;48.148;11.648;2023-05-07T11:16:19;4.77;;;3.97;;
8466;SDS011;4270;48.148;11.648;2023-05-07T11:18:45;4.20;;;3.80;;
8466;SDS011;4270;48.148;11.648;2023-05-07T11:21:11;3.60;;;3.20;;
8466;SDS011;4270;48.148;11.648;2023-05-07T11:26:04;7.87;;;4.07;;
8466;SDS011;4270;48.148;11.648;2023-05-07T11:28:29;4.23;;;3.80;;
8466;SDS011;4270;48.148;11.648;2023-05-07T11:30:55;4.27;;;3.17;;
8466;SDS011;4270;48.148;11.648;2023-05-07T11:33:21;4.37;;;3.97;;
8466;SDS011;4270;48.148;11.648;2023-05-07T11:35:47;5.33;;;4.10;;
8466;SDS011;4270;48.148;11.648;2023-05-07T11:38:12;4.13;;;3.73;;
8466;SDS011;4270;48.148;11.648;2023-05-07T11:43:15;3.77;;;3.40;;
8466;SDS011;4270;48.148;11.648;2023-05-07T11:45:41;4.60;;;3.60;;
8466;SDS011;4270;48.148;11.648;2023-05-07T11:48:06;7.25;;;3.15;;
8466;SDS011;4270;48.148;11.648;2023-05-07T11:50:31;3.33;;;3.00;;
8466;SDS011;4270;48.148;11.648;2023-05-07T11:52:56;5.70;;;3.50;;
8466;SDS011;4270;48.148;11.648;2023-05-07T11:55:21;4.07;;;3.60;;
8466;SDS011;4270;48.148;11.648;2023-05-07T11:57:49;3.43;;;3.13;;
8466;SDS011;4270;48.148;11.648;2023-05-07T12:00:15;3.20;;;3.00;;
8466;SDS011;4270;48.148;11.648;2023-05-07T12:02:40;4.60;;;3.60;;
8466;SDS011;4270;48.148;11.648;2023-05-07T12:05:07;4.60;;;3.00;;
8466;SDS011;4270;48.148;11.648;2023-05-07T12:07:33;4.70;;;3.17;;
8466;SDS011;4270;48.148;11.648;2023-05-07T12:09:58;2.70;;;2.50;;
8466;SDS011;4270;48.148;11.648;2023-05-07T12:12:23;3.23;;;2.93;;
8466;SDS011;4270;48.148;11.648;2023-05-07T12:14:48;5.10;;;2.70;;
8466;SDS011;4270;48.148;11.648;2023-05-07T12:17:13;3.87;;;2.63;;
8466;SDS011;4270;48.148;11.648;2023-05-07T12:19:39;2.90;;;2.57;;
8466;SDS011;4270;48.148;11.648;2023-05-07T12:22:05;3.27;;;2.90;;
8466;SDS011;4270;48.148;11.648;2023-05-07T12:24:47;4.00;;;2.73;;
8466;SDS011;4270;48.148;11.648;2023-05-07T12:27:13;5.37;;;3.30;;
8466;SDS011;4270;48.148;11.648;2023-05-07T12:29:38;3.60;;;2.40;;
8466;SDS011;4270;48.148;11.648;2023-05-07T12:32:05;3.00;;;2.80;;
8466;SDS011;4270;48.148;11.648;2023-05-07T12:34:31;3.57;;;3.20;;
8466;SDS011;4270;48.148;11.648;2023-05-07T12:36:56;4.77;;;2.60;;
8466;SDS011;4270;48.148;11.648;2023-05-07T12:39:21;2.60;;;2.40;;
8466;SDS011;4270;48.148;11.648;2023-05-07T12:41:53;2.20;;;2.10;;
8466;SDS011;4270;48.148;11.648;2023-05-07T12:44:19;2.70;;;2.50;;
8466;SDS011;4270;48.148;11.648;2023-05-07T12:46:46;2.70;;;2.33;;
8466;SDS011;4270;48.148;11.648;2023-05-07T12:49:11;2.43;;;2.23;;
8466;SDS011;4270;48.148;11.648;2023-05-07T12:51:37;2.70;;;2.50;;
8466;SDS011;4270;48.148;11.648;2023-05-07T12:54:02;2.07;;;1.90;;
8466;SDS011;4270;48.148;11.648;2023-05-07T12:56:30;3.20;;;1.97;;
8466;SDS011;4270;48.148;11.648;2023-05-07T12:58:57;5.20;;;2.20;;
8466;SDS011;4270;48.148;11.648;2023-05-07T13:01:22;3.53;;;1.83;;
8466;SDS011;4270;48.148;11.648;2023-05-07T13:03:53;2.60;;;1.80;;
8466;SDS011;4270;48.148;11.648;2023-05-07T13:06:18;1.80;;;1.70;;
8466;SDS011;4270;48.148;11.648;2023-05-07T13:08:43;2.23;;;1.70;;
8466;SDS011;4270;48.148;11.648;2023-05-07T13:11:09;4.40;;;2.13;;
8466;SDS011;4270;48.148;11.648;2023-05-07T13:13:35;2.40;;;2.20;;
8466;SDS011;4270;48.148;11.648;2023-05-07T13:16:01;1.70;;;1.53;;
8466;SDS011;4270;48.148;11.648;2023-05-07T13:18:28;2.03;;;1.63;;
8466;SDS011;4270;48.148;11.648;2023-05-07T13:20:54;1.50;;;1.40;;
8466;SDS011;4270;48.148;11.648;2023-05-07T13:23:19;2.63;;;1.90;;
8466;SDS011;4270;48.148;11.648;2023-05-07T13:25:44;4.30;;;2.00;;
8466;SDS011;4270;48.148;11.648;2023-05-07T13:28:10;2.07;;;1.60;;
8466;SDS011;4270;48.148;11.648;2023-05-07T13:30:35;2.33;;;1.90;;
8466;SDS011;4270;48.148;11.648;2023-05-07T13:33:00;1.90;;;1.70;;
8466;SDS011;4270;48.148;11.648;2023-05-07T13:35:25;1.70;;;1.60;;
8466;SDS011;4270;48.148;11.648;2023-05-07T13:37:51;2.00;;;1.73;;
8466;SDS011;4270;48.148;11.648;2023-05-07T13:40:17;2.13;;;1.83;;
8466;SDS011;4270;48.148;11.648;2023-05-07T13:42:42;1.97;;;1.87;;
8466;SDS011;4270;48.148;11.648;2023-05-07T13:45:07;2.10;;;1.73;;
8466;SDS011;4270;48.148;11.648;2023-05-07T13:47:33;2.60;;;2.40;;
8466;SDS011;4270;48.148;11.648;2023-05-07T13:49:58;4.20;;;2.30;;
8466;SDS011;4270;48.148;11.648;2023-05-07T13:52:23;2.30;;;2.10;;
8466;SDS011;4270;48.148;11.648;2023-05-07T13:54:48;2.70;;;2.45;;
8466;SDS011;4270;48.148;11.648;2023-05-07T13:57:13;2.55;;;2.30;;
8466;SDS011;4270;48.148;11.648;2023-05-07T13:59:38;2.80;;;2.10;;
8466;SDS011;4270;48.148;11.648;2023-05-07T14:02:04;1.93;;;1.77;;
8466;SDS011;4270;48.148;11.648;2023-05-07T14:04:30;2.87;;;2.10;;
8466;SDS011;4270;48.148;11.648;2023-05-07T14:06:55;2.10;;;2.00;;
8466;SDS011;4270;48.148;11.648;2023-05-07T14:09:20;2.70;;;2.13;;
8466;SDS011;4270;48.148;11.648;2023-05-07T14:11:45;2.37;;;2.17;;
8466;SDS011;4270;48.148;11.648;2023-05-07T14:14:12;2.30;;;2.10;;
8466;SDS011;4270;48.148;11.648;2023-05-07T14:16:37;2.10;;;1.77;;
8466;SDS011;4270;48.148;11.648;2023-05-07T14:19:02;2.77;;;2.30;;
8466;SDS011;4270;48.148;11.648;2023-05-07T14:21:28;4.53;;;2.40;;
8466;SDS011;4270;48.148;11.648;2023-05-07T14:23:53;2.70;;;2.50;;
8466;SDS011;4270;48.148;11.648;2023-05-07T14:26:18;3.00;;;2.70;;
8466;SDS011;4270;48.148;11.648;2023-05-07T14:28:44;3.13;;;2.50;;
8466;SDS011;4270;48.148;11.648;2023-05-07T14:31:11;3.53;;;2.87;;
8466;SDS011;4270;48.148;11.648;2023-05-07T14:33:36;3.73;;;2.70;;
8466;SDS011;4270;48.148;11.648;2023-05-07T14:36:01;4.65;;;2.97;;
8466;SDS011;4270;48.148;11.648;2023-05-07T14:38:27;3.50;;;3.20;;
8466;SDS011;4270;48.148;11.648;2023-05-07T14:40:52;4.17;;;3.30;;
8466;SDS011;4270;48.148;11.648;2023-05-07T14:43:20;2.80;;;2.53;;
8466;SDS011;4270;48.148;11.648;2023-05-07T14:45:45;2.83;;;2.63;;
8466;SDS011;4270;48.148;11.648;2023-05-07T14:48:11;3.13;;;2.67;;
8466;SDS011;4270;48.148;11.648;2023-05-07T14:50:39;3.10;;;2.70;;
8466;SDS011;4270;48.148;11.648;2023-05-07T14:53:05;3.07;;;2.47;;
8466;SDS011;4270;48.148;11.648;2023-05-07T14:55:30;2.27;;;2.07;;
8466;SDS011;4270;48.148;11.648;2023-05-07T14:57:55;2.93;;;2.63;;
8466;SDS011;4270;48.148;11.648;2023-05-07T15:00:20;2.60;;;2.40;;
8466;SDS011;4270;48.148;11.648;2023-05-07T15:02:46;3.20;;;2.90;;
8466;SDS011;4270;48.148;11.648;2023-05-07T15:05:11;3.00;;;2.60;;